Schedule Details


Flight Number: CTN444
Departure: Kastela (LDSP) at 12:30
Arrival: Schwechat (LOWW) at 13:50
Route: SIRMI M725 ZAG L187 OBUTI

Weather Information
LDSP 220400Z 02005KT CAVOK 11/08 Q1018 NOSIG
LOWW 220350Z VRB01KT CAVOK 05/01 Q1015 NOSIG
Schedule Frequency

Route Map